Time;durP1;ratioP1;P1;durP2;ratioP2;P2;SDS_P1;SDS_P2;PMS_P1;PMS_P2;Temp;Humidity;BMP_temperature;BMP_pressure;BME280_temperature;BME280_humidity;BME280_pressure;Samples;Min_cycle;Max_cycle;Signal;HPM_P1;HPM_P2
2021/11/09 00:01:50;;;;;;;;;;;9.40;80.10;;;;;;20911781;28;77130;-74
2021/11/09 00:11:52;;;;;;;;;;;9.10;80.70;;;;;;20909371;28;77068;-74
2021/11/09 00:21:55;;;;;;;;;;;9.00;81.40;;;;;;20910749;28;76017;-76
2021/11/09 00:31:57;;;;;;;;;;;8.90;81.60;;;;;;20908986;27;75815;-75
2021/11/09 00:42:13;;;;;;;;;;;8.70;82.00;;;;;;21065872;27;74554;-75
2021/11/09 00:52:30;;;;;;;;;;;8.70;82.30;;;;;;21151678;27;75220;-74
2021/11/09 01:02:47;;;;;;;;;;;8.40;82.40;;;;;;21066190;27;75064;-76
2021/11/09 01:13:03;;;;;;;;;;;8.40;82.70;;;;;;21066156;27;76139;-76
2021/11/09 01:23:18;;;;;;;;;;;8.30;83.00;;;;;;21065389;27;76101;-74
2021/11/09 01:33:34;;;;;;;;;;;8.20;83.30;;;;;;20992976;27;2225477;-77
2021/11/09 01:43:38;;;;;;;;;;;8.20;83.30;;;;;;21045230;27;77290;-75
2021/11/09 01:53:41;;;;;;;;;;;8.10;83.40;;;;;;21063911;27;76413;-76
2021/11/09 02:03:46;;;;;;;;;;;8.00;83.50;;;;;;21061035;27;76788;-75
2021/11/09 02:13:49;;;;;;;;;;;7.90;83.80;;;;;;21060742;27;75657;-76
2021/11/09 02:23:54;;;;;;;;;;;7.90;83.90;;;;;;21042125;27;76952;-77
2021/11/09 02:33:58;;;;;;;;;;;7.90;84.00;;;;;;21057756;27;76105;-77
2021/11/09 02:44:01;;;;;;;;;;;7.80;84.00;;;;;;20988261;27;75506;-75
2021/11/09 03:14:43;;;;;;;;;;;7.50;84.70;;;;;;20985739;27;75637;-75
2021/11/09 03:45:52;;;;;;;;;;;6.90;83.40;;;;;;20998164;27;76904;-76
2021/11/09 04:06:50;;;;;;;;;;;6.40;84.10;;;;;;20958204;27;75888;-74
2021/11/09 05:19:53;;;;;;;;;;;6.40;85.00;;;;;;20982938;27;76917;-74
2021/11/09 05:29:58;;;;;;;;;;;6.30;85.20;;;;;;20991017;27;76670;-76
2021/11/09 05:40:05;;;;;;;;;;;6.20;85.60;;;;;;20973591;27;77116;-76
2021/11/09 05:50:09;;;;;;;;;;;6.20;85.70;;;;;;20990684;27;76938;-76
2021/11/09 06:00:14;;;;;;;;;;;6.20;86.00;;;;;;20972859;27;75969;-77
2021/11/09 06:10:18;;;;;;;;;;;6.20;86.30;;;;;;20990371;27;77021;-77
2021/11/09 06:20:20;;;;;;;;;;;6.20;86.10;;;;;;21002552;27;74733;-74
2021/11/09 06:30:24;;;;;;;;;;;6.10;86.20;;;;;;20984896;27;76748;-76
2021/11/09 06:40:27;;;;;;;;;;;6.20;86.60;;;;;;20983902;27;74755;-75
2021/11/09 06:50:29;;;;;;;;;;;6.20;86.60;;;;;;20982912;27;75991;-76
2021/11/09 07:00:32;;;;;;;;;;;6.10;86.60;;;;;;21001727;27;77055;-63
2021/11/09 07:10:34;;;;;;;;;;;6.10;86.90;;;;;;21002744;27;76513;-61
2021/11/09 07:20:37;;;;;;;;;;;6.00;86.60;;;;;;21001184;27;76118;-63
2021/11/09 07:30:42;;;;;;;;;;;5.90;86.50;;;;;;20982419;27;74679;-64
2021/11/09 07:40:45;;;;;;;;;;;5.90;86.10;;;;;;21000197;27;75651;-62
2021/11/09 07:50:47;;;;;;;;;;;6.10;85.80;;;;;;20999826;27;74560;-64
2021/11/09 08:00:55;;;;;;;;;;;6.30;85.40;;;;;;20998897;27;76403;-61
2021/11/09 08:10:57;;;;;;;;;;;6.60;84.70;;;;;;20998879;27;75609;-64
2021/11/09 08:21:00;;;;;;;;;;;7.00;83.70;;;;;;20997055;27;74694;-64
2021/11/09 08:31:08;;;;;;;;;;;7.60;83.70;;;;;;20996738;27;75787;-64
2021/11/09 08:41:12;;;;;;;;;;;7.90;83.00;;;;;;20995746;27;74536;-64
2021/11/09 08:51:16;;;;;;;;;;;8.40;83.20;;;;;;20995119;27;76403;-62
2021/11/09 09:11:19;;;;;;;;;;;9.40;80.80;;;;;;20993785;27;74509;-64
2021/11/09 09:21:30;;;;;;;;;;;12.10;76.80;;;;;;20993915;27;76871;-66
2021/11/09 09:32:13;;;;;;;;;;;11.40;77.00;;;;;;20990776;27;74633;-64
2021/11/09 10:02:22;;;;;;;;;;;14.20;68.60;;;;;;21003665;27;75606;-62
2021/11/09 10:12:28;;;;;;;;;;;13.70;71.30;;;;;;21001618;27;76232;-60
2021/11/09 10:22:31;;;;;;;;;;;25.20;48.20;;;;;;21000451;27;74514;-63
2021/11/09 10:32:33;;;;;;;;;;;31.60;36.20;;;;;;20999491;27;75789;-64
2021/11/09 10:42:39;;;;;;;;;;;33.40;32.90;;;;;;20981970;27;74720;-62
2021/11/09 10:52:42;;;;;;;;;;;35.10;32.60;;;;;;20999469;27;76782;-63
2021/11/09 11:13:17;;;;;;;;;;;38.20;32.90;;;;;;20998346;27;75822;-65
2021/11/09 11:23:18;;;;;;;;;;;36.90;32.60;;;;;;20996590;27;75624;-63
2021/11/09 11:33:21;;;;;;;;;;;39.00;32.50;;;;;;20996252;27;76796;-63
2021/11/09 11:43:41;;;;;;;;;;;38.20;28.80;;;;;;20996029;27;75524;-64
2021/11/09 11:53:44;;;;;;;;;;;39.30;34.30;;;;;;20994464;27;74767;-62
2021/11/09 12:03:47;;;;;;;;;;;39.70;31.50;;;;;;20994377;27;74811;-64
2021/11/09 12:13:58;;;;;;;;;;;37.50;33.00;;;;;;20992341;27;74568;-64
2021/11/09 12:24:08;;;;;;;;;;;32.60;36.30;;;;;;20993945;27;76825;-63
2021/11/09 12:34:09;;;;;;;;;;;33.60;40.20;;;;;;20991805;27;76724;-65
2021/11/09 12:44:11;;;;;;;;;;;31.90;44.80;;;;;;20991635;27;75604;-62
2021/11/09 12:54:14;;;;;;;;;;;32.90;39.80;;;;;;20990779;27;75690;-61
2021/11/09 13:04:25;;;;;;;;;;;27.50;48.70;;;;;;20990925;27;75837;-64
2021/11/09 13:14:35;;;;;;;;;;;30.10;46.30;;;;;;20972111;27;75957;-60
2021/11/09 13:24:39;;;;;;;;;;;31.30;48.40;;;;;;20970180;27;75557;-62
2021/11/09 13:34:43;;;;;;;;;;;30.60;38.90;;;;;;20988628;27;76817;-63
2021/11/09 13:44:46;;;;;;;;;;;30.50;46.30;;;;;;20970222;27;76763;-61
2021/11/09 13:54:51;;;;;;;;;;;31.30;45.40;;;;;;20987087;27;75733;-63
2021/11/09 14:25:29;;;;;;;;;;;34.40;40.60;;;;;;20986522;27;75781;-61
2021/11/09 14:35:33;;;;;;;;;;;32.10;39.20;;;;;;20991916;27;76176;-62
2021/11/09 14:45:43;;;;;;;;;;;26.80;50.80;;;;;;21000030;27;75891;-62
2021/11/09 14:55:51;;;;;;;;;;;23.10;63.90;;;;;;20999215;27;75900;-64
2021/11/09 15:05:53;;;;;;;;;;;21.60;63.20;;;;;;20997780;27;74585;-64
2021/11/09 15:26:28;;;;;;;;;;;19.90;53.10;;;;;;20952621;27;74739;-62
2021/11/09 15:36:42;;;;;;;;;;;19.30;59.10;;;;;;20911284;28;75828;-63
2021/11/09 15:46:44;;;;;;;;;;;18.90;63.90;;;;;;20953152;27;75804;-69
2021/11/09 15:56:45;;;;;;;;;;;18.40;60.60;;;;;;20995831;27;75635;-69
2021/11/09 16:06:47;;;;;;;;;;;18.00;36.70;;;;;;20990873;27;75706;-66
2021/11/09 16:16:53;;;;;;;;;;;17.70;55.60;;;;;;20965540;27;75781;-68
2021/11/09 16:26:56;;;;;;;;;;;17.40;56.20;;;;;;20947181;27;74580;-66
2021/11/09 16:36:57;;;;;;;;;;;17.10;56.40;;;;;;20889859;28;75516;-68
2021/11/09 16:47:01;;;;;;;;;;;16.80;60.90;;;;;;20963687;27;76815;-67
2021/11/09 18:20:10;;;;;;;;;;;13.50;70.90;;;;;;20935292;27;75928;-68
2021/11/09 18:30:07;;;;;;;;;;;13.20;70.20;;;;;;20914989;28;76130;-71
2021/11/09 18:40:10;;;;;;;;;;;13.00;72.10;;;;;;20917230;28;76248;-73
2021/11/09 18:50:11;;;;;;;;;;;12.80;72.60;;;;;;20916081;28;75716;-73
2021/11/09 19:00:14;;;;;;;;;;;12.60;71.10;;;;;;20951736;27;76128;-74
2021/11/09 19:10:19;;;;;;;;;;;12.50;73.30;;;;;;20981568;27;75723;-74
2021/11/09 19:20:21;;;;;;;;;;;12.40;73.50;;;;;;20973025;27;75594;-74
2021/11/09 19:30:34;;;;;;;;;;;12.30;72.70;;;;;;20913612;27;75733;-74
2021/11/09 19:40:36;;;;;;;;;;;12.00;66.20;;;;;;20925370;27;76970;-72
2021/11/09 19:50:38;;;;;;;;;;;11.90;73.10;;;;;;20914418;27;75719;-72
2021/11/09 20:00:47;;;;;;;;;;;11.80;72.40;;;;;;20911638;27;77124;-72
2021/11/09 20:10:52;;;;;;;;;;;11.60;72.80;;;;;;20916355;27;75984;-72
2021/11/09 20:20:54;;;;;;;;;;;11.40;75.00;;;;;;20985295;27;75040;-74
2021/11/09 20:30:58;;;;;;;;;;;11.20;73.30;;;;;;20891097;28;75897;-72
2021/11/09 20:41:00;;;;;;;;;;;11.10;74.60;;;;;;20910006;28;76781;-73
2021/11/09 20:51:02;;;;;;;;;;;11.00;74.80;;;;;;20903251;27;75655;-74
2021/11/09 21:01:05;;;;;;;;;;;10.90;70.20;;;;;;20939191;27;75747;-73
2021/11/09 21:11:08;;;;;;;;;;;10.90;69.80;;;;;;20918924;27;76950;-73
2021/11/09 21:21:16;;;;;;;;;;;10.80;73.20;;;;;;20889895;28;76789;-71
2021/11/09 21:41:41;;;;;;;;;;;10.50;74.90;;;;;;20908554;27;76107;-74
2021/11/09 21:51:43;;;;;;;;;;;10.30;74.70;;;;;;20932070;27;77274;-73
2021/11/09 22:01:45;;;;;;;;;;;10.20;75.70;;;;;;20920825;28;76976;-74
2021/11/09 22:11:48;;;;;;;;;;;10.10;75.90;;;;;;20931796;27;76570;-73
2021/11/09 22:21:50;;;;;;;;;;;9.90;73.40;;;;;;20901453;28;76543;-72
2021/11/09 22:31:51;;;;;;;;;;;9.70;75.80;;;;;;20917761;28;75625;-72
2021/11/09 22:41:53;;;;;;;;;;;9.50;75.40;;;;;;20944532;27;76822;-73
2021/11/09 22:51:54;;;;;;;;;;;9.30;76.20;;;;;;21001535;27;75694;-72
2021/11/09 23:01:56;;;;;;;;;;;9.10;74.40;;;;;;20999809;27;75738;-72
2021/11/09 23:11:58;;;;;;;;;;;8.90;76.70;;;;;;20999417;27;75517;-74
2021/11/09 23:21:59;;;;;;;;;;;8.80;77.20;;;;;;20974051;27;74865;-73
2021/11/09 23:32:01;;;;;;;;;;;8.70;77.10;;;;;;20918213;27;75837;-73
2021/11/09 23:42:03;;;;;;;;;;;8.60;77.00;;;;;;20895929;28;76754;-74
2021/11/09 23:52:05;;;;;;;;;;;8.50;77.20;;;;;;20894708;28;75605;-72
